Time;durP1;ratioP1;P1;durP2;ratioP2;P2;SDS_P1;SDS_P2;PMS_P1;PMS_P2;Temp;Humidity;BMP_temperature;BMP_pressure;BME280_temperature;BME280_humidity;BME280_pressure;Samples;Min_cycle;Max_cycle;Signal;HPM_P1;HPM_P2
2021/10/24 00:00:14;;;;;;;13.20;9.20;;;;;;;;;;4992918;28;20401;-48
2021/10/24 00:02:40;;;;;;;18.30;9.63;;;;;;;;;;4992580;28;20753;-48
2021/10/24 00:05:07;;;;;;;9.37;8.20;;;;;;;;;;4992763;28;20174;-48
2021/10/24 00:07:33;;;;;;;13.60;8.15;;;;;;;;;;4992671;28;20499;-49
2021/10/24 00:09:59;;;;;;;14.40;9.60;;;;;;;;;;4993267;28;20445;-48
2021/10/24 00:12:25;;;;;;;12.47;9.30;;;;;;;;;;4992359;28;20428;-48
2021/10/24 00:14:51;;;;;;;14.43;8.37;;;;;;;;;;4992569;28;20522;-48
2021/10/24 00:17:18;;;;;;;15.30;8.65;;;;;;;;;;4992592;28;20435;-48
2021/10/24 00:19:44;;;;;;;12.73;8.35;;;;;;;;;;4992593;28;20252;-48
2021/10/24 00:22:10;;;;;;;10.93;7.97;;;;;;;;;;4992251;28;20473;-48
2021/10/24 00:24:36;;;;;;;11.80;7.87;;;;;;;;;;4992619;28;20218;-48
2021/10/24 00:27:02;;;;;;;13.87;7.77;;;;;;;;;;4992317;28;20400;-49
2021/10/24 00:29:28;;;;;;;12.93;8.45;;;;;;;;;;4992475;28;20993;-48
2021/10/24 00:31:54;;;;;;;12.03;8.27;;;;;;;;;;4992241;28;20173;-48
2021/10/24 00:34:20;;;;;;;19.10;9.48;;;;;;;;;;4992387;28;20452;-46
2021/10/24 00:36:46;;;;;;;9.75;8.02;;;;;;;;;;4992448;28;20592;-45
2021/10/24 00:39:12;;;;;;;15.80;8.60;;;;;;;;;;4992434;28;20169;-46
2021/10/24 00:41:38;;;;;;;12.27;8.00;;;;;;;;;;4992223;28;20400;-50
2021/10/24 00:44:21;;;;;;;10.30;8.10;;;;;;;;;;4992289;28;20380;-46
2021/10/24 00:46:48;;;;;;;10.10;7.70;;;;;;;;;;4992324;28;20793;-46
2021/10/24 00:49:14;;;;;;;13.63;7.72;;;;;;;;;;4996298;28;20396;-46
2021/10/24 00:51:40;;;;;;;15.63;8.00;;;;;;;;;;4996131;28;20172;-46
2021/10/24 00:54:07;;;;;;;13.15;7.80;;;;;;;;;;4995903;28;20428;-47
2021/10/24 00:56:33;;;;;;;14.85;8.00;;;;;;;;;;4996425;28;20215;-46
2021/10/24 00:58:59;;;;;;;15.65;7.93;;;;;;;;;;4996127;28;20169;-46
2021/10/24 01:01:25;;;;;;;21.27;8.77;;;;;;;;;;4995509;28;20176;-46
2021/10/24 01:03:51;;;;;;;12.27;8.67;;;;;;;;;;4995169;28;20475;-47
2021/10/24 01:06:17;;;;;;;8.83;7.40;;;;;;;;;;4995671;28;20409;-47
2021/10/24 01:08:43;;;;;;;17.00;7.88;;;;;;;;;;4995924;28;20436;-48
2021/10/24 01:11:10;;;;;;;10.27;7.63;;;;;;;;;;4995927;28;20207;-47
2021/10/24 01:13:36;;;;;;;24.92;8.48;;;;;;;;;;4995501;28;20428;-47
2021/10/24 01:16:28;;;;;;;11.10;8.37;;;;;;;;;;4995765;28;20201;-47
2021/10/24 01:18:54;;;;;;;16.20;8.75;;;;;;;;;;4993715;28;20504;-46
2021/10/24 01:21:20;;;;;;;12.43;7.53;;;;;;;;;;4995714;28;20165;-47
2021/10/24 01:23:46;;;;;;;10.00;8.90;;;;;;;;;;4995350;28;20836;-46
2021/10/24 01:26:12;;;;;;;13.40;8.30;;;;;;;;;;4995637;28;20169;-46
2021/10/24 01:28:38;;;;;;;12.93;7.82;;;;;;;;;;4995593;28;20938;-46
2021/10/24 01:31:04;;;;;;;8.43;7.35;;;;;;;;;;4995483;28;20779;-47
2021/10/24 01:33:31;;;;;;;12.90;8.27;;;;;;;;;;4995133;28;20272;-46
2021/10/24 01:36:01;;;;;;;17.52;8.43;;;;;;;;;;4995311;28;20459;-47
2021/10/24 01:38:27;;;;;;;10.18;7.88;;;;;;;;;;4995438;28;20224;-47
2021/10/24 01:40:55;;;;;;;10.60;7.70;;;;;;;;;;4995363;28;20173;-45
2021/10/24 01:43:21;;;;;;;13.02;8.60;;;;;;;;;;4995054;28;20216;-45
2021/10/24 01:45:47;;;;;;;14.40;8.18;;;;;;;;;;4995395;28;20179;-48
2021/10/24 01:48:15;;;;;;;14.90;8.50;;;;;;;;;;4995015;28;20532;-46
2021/10/24 01:50:41;;;;;;;9.98;7.80;;;;;;;;;;4995171;28;20169;-46
2021/10/24 01:53:07;;;;;;;13.55;8.40;;;;;;;;;;4994845;28;20205;-46
2021/10/24 01:55:34;;;;;;;12.48;7.90;;;;;;;;;;4995382;28;20606;-46
2021/10/24 01:58:01;;;;;;;12.73;7.75;;;;;;;;;;4994949;28;20161;-46
2021/10/24 02:00:27;;;;;;;14.98;8.43;;;;;;;;;;4994396;28;20517;-46
2021/10/24 02:02:53;;;;;;;10.63;7.50;;;;;;;;;;4994571;28;20185;-46
2021/10/24 02:05:20;;;;;;;11.90;7.68;;;;;;;;;;4994933;28;20435;-45
2021/10/24 02:07:46;;;;;;;18.70;8.00;;;;;;;;;;4994863;28;20173;-46
2021/10/24 02:10:13;;;;;;;11.83;7.67;;;;;;;;;;4994951;28;20713;-47
2021/10/24 02:12:39;;;;;;;18.23;9.23;;;;;;;;;;4994542;28;20447;-46
2021/10/24 02:15:06;;;;;;;11.25;8.13;;;;;;;;;;4994687;28;20695;-46
2021/10/24 02:17:32;;;;;;;12.30;8.32;;;;;;;;;;4994558;28;20208;-46
2021/10/24 02:19:58;;;;;;;16.00;8.33;;;;;;;;;;4994669;28;20216;-46
2021/10/24 02:22:24;;;;;;;13.23;8.35;;;;;;;;;;4994226;28;20464;-47
2021/10/24 02:24:50;;;;;;;14.37;9.07;;;;;;;;;;4994680;28;20662;-47
2021/10/24 02:27:17;;;;;;;12.90;8.00;;;;;;;;;;4994466;28;20999;-46
2021/10/24 02:29:43;;;;;;;13.90;8.07;;;;;;;;;;4994461;28;20179;-46
2021/10/24 02:32:09;;;;;;;10.73;7.95;;;;;;;;;;4994053;28;20682;-47
2021/10/24 02:34:35;;;;;;;9.18;6.20;;;;;;;;;;4994346;28;20197;-47
2021/10/24 02:37:01;;;;;;;12.10;7.83;;;;;;;;;;4994290;28;20165;-47
2021/10/24 02:39:27;;;;;;;11.50;7.60;;;;;;;;;;4994344;28;20755;-46
2021/10/24 02:41:53;;;;;;;10.93;7.85;;;;;;;;;;4994018;28;20849;-47
2021/10/24 02:44:19;;;;;;;10.77;7.80;;;;;;;;;;4994159;28;20165;-48
2021/10/24 02:46:45;;;;;;;11.10;7.85;;;;;;;;;;4993977;28;20162;-48
2021/10/24 02:49:11;;;;;;;11.50;8.20;;;;;;;;;;4994033;28;20698;-47
2021/10/24 02:51:38;;;;;;;9.63;7.55;;;;;;;;;;4993975;28;20643;-46
2021/10/24 02:54:04;;;;;;;8.50;7.60;;;;;;;;;;4993806;28;20169;-46
2021/10/24 02:56:30;;;;;;;12.23;7.65;;;;;;;;;;4993906;28;20165;-46
2021/10/24 02:58:56;;;;;;;10.50;7.15;;;;;;;;;;4993880;28;20161;-48
2021/10/24 03:01:22;;;;;;;13.50;8.07;;;;;;;;;;4993784;28;20223;-47
2021/10/24 03:03:48;;;;;;;11.17;7.50;;;;;;;;;;4993587;28;20420;-46
2021/10/24 03:06:14;;;;;;;12.27;8.13;;;;;;;;;;4994060;28;20930;-46
2021/10/24 03:08:40;;;;;;;17.30;8.03;;;;;;;;;;4993718;28;20982;-47
2021/10/24 03:11:06;;;;;;;12.90;8.53;;;;;;;;;;4992750;28;20485;-46
2021/10/24 03:13:32;;;;;;;13.17;8.60;;;;;;;;;;4993345;28;20486;-46
2021/10/24 03:15:58;;;;;;;11.63;7.70;;;;;;;;;;4993470;28;20881;-47
2021/10/24 03:18:24;;;;;;;11.68;7.82;;;;;;;;;;4993549;28;20404;-48
2021/10/24 03:20:50;;;;;;;10.67;7.63;;;;;;;;;;4993544;28;20165;-46
2021/10/24 03:23:16;;;;;;;11.27;7.60;;;;;;;;;;4993015;28;20448;-47
2021/10/24 03:25:42;;;;;;;11.63;8.10;;;;;;;;;;4993799;28;20417;-48
2021/10/24 03:28:08;;;;;;;13.35;7.68;;;;;;;;;;4993285;28;20169;-48
2021/10/24 03:30:34;;;;;;;9.33;6.70;;;;;;;;;;4993452;28;20513;-46
2021/10/24 03:33:00;;;;;;;13.17;8.00;;;;;;;;;;4993016;28;20431;-46
2021/10/24 03:35:26;;;;;;;9.27;8.00;;;;;;;;;;4993327;28;20518;-47
2021/10/24 03:37:52;;;;;;;9.73;7.47;;;;;;;;;;4993157;28;20405;-47
2021/10/24 03:40:18;;;;;;;7.43;6.73;;;;;;;;;;4993154;28;20636;-46
2021/10/24 03:42:44;;;;;;;10.82;8.07;;;;;;;;;;4992860;28;21039;-46
2021/10/24 03:45:10;;;;;;;12.00;8.13;;;;;;;;;;4993013;28;20259;-46
2021/10/24 03:47:37;;;;;;;11.70;7.38;;;;;;;;;;4993070;28;20407;-46
2021/10/24 03:50:04;;;;;;;9.82;8.82;;;;;;;;;;4992988;28;20176;-46
2021/10/24 03:52:30;;;;;;;10.70;8.02;;;;;;;;;;4992677;28;20184;-46
2021/10/24 03:54:56;;;;;;;14.30;8.10;;;;;;;;;;4992841;28;20672;-47
2021/10/24 03:57:22;;;;;;;13.90;8.00;;;;;;;;;;4992702;28;20843;-48
2021/10/24 03:59:48;;;;;;;10.80;7.43;;;;;;;;;;4993091;28;20207;-45
2021/10/24 04:02:14;;;;;;;14.00;7.70;;;;;;;;;;4992566;28;20471;-45
2021/10/24 04:04:41;;;;;;;10.70;7.67;;;;;;;;;;4993096;28;20440;-46
2021/10/24 04:07:07;;;;;;;17.05;8.13;;;;;;;;;;4992889;28;20396;-46
2021/10/24 04:09:33;;;;;;;10.90;7.87;;;;;;;;;;4992767;28;20521;-47
2021/10/24 04:11:59;;;;;;;10.20;7.17;;;;;;;;;;4992330;28;20424;-46
2021/10/24 04:14:25;;;;;;;9.53;7.70;;;;;;;;;;4992526;28;20912;-46
2021/10/24 04:16:53;;;;;;;13.43;8.45;;;;;;;;;;4992583;28;20439;-48
2021/10/24 04:19:19;;;;;;;19.95;7.97;;;;;;;;;;4992632;28;20165;-46
2021/10/24 04:21:45;;;;;;;12.00;8.40;;;;;;;;;;4992073;28;20211;-46
2021/10/24 04:24:11;;;;;;;12.20;8.27;;;;;;;;;;4993169;28;20781;-47
2021/10/24 04:26:37;;;;;;;16.30;8.48;;;;;;;;;;4992407;28;20404;-47
2021/10/24 04:29:03;;;;;;;13.77;9.20;;;;;;;;;;4992500;28;20199;-47
2021/10/24 04:31:29;;;;;;;11.45;7.88;;;;;;;;;;4992513;28;20895;-48
2021/10/24 04:33:56;;;;;;;16.55;8.32;;;;;;;;;;4992241;28;20200;-46
2021/10/24 04:36:22;;;;;;;11.35;7.57;;;;;;;;;;4992268;28;20763;-47
2021/10/24 04:38:48;;;;;;;11.40;8.27;;;;;;;;;;4992463;28;20173;-49
2021/10/24 04:44:18;;;;;;;19.27;8.45;;;;;;;;;;4992221;28;20387;-48
2021/10/24 04:46:44;;;;;;;10.93;7.77;;;;;;;;;;4992201;28;20170;-47
2021/10/24 04:49:10;;;;;;;12.90;7.30;;;;;;;;;;4992351;28;20461;-48
2021/10/24 04:51:35;;;;;;;11.67;8.03;;;;;;;;;;4992256;28;20404;-47
2021/10/24 04:54:02;;;;;;;11.63;7.60;;;;;;;;;;4992355;28;20400;-47
2021/10/24 04:56:28;;;;;;;14.52;8.57;;;;;;;;;;4992129;28;20959;-47
2021/10/24 04:58:53;;;;;;;22.53;9.83;;;;;;;;;;4992191;28;20169;-48
2021/10/24 05:01:19;;;;;;;20.97;9.40;;;;;;;;;;4990865;28;20410;-48
2021/10/24 05:03:48;;;;;;;20.20;9.90;;;;;;;;;;4991951;28;20435;-47
2021/10/24 05:06:14;;;;;;;22.90;11.23;;;;;;;;;;4992166;28;20408;-47
2021/10/24 05:08:40;;;;;;;16.97;9.40;;;;;;;;;;4992068;28;20173;-48
2021/10/24 05:11:06;;;;;;;26.13;10.87;;;;;;;;;;4992153;28;20446;-49
2021/10/24 05:13:32;;;;;;;22.33;10.90;;;;;;;;;;4991769;28;20432;-47
2021/10/24 05:15:58;;;;;;;26.45;11.68;;;;;;;;;;4991937;28;20506;-47
2021/10/24 05:18:24;;;;;;;24.60;12.43;;;;;;;;;;4991980;28;20173;-48
2021/10/24 05:20:50;;;;;;;37.00;13.90;;;;;;;;;;4992049;28;20397;-48
2021/10/24 05:23:16;;;;;;;42.53;14.10;;;;;;;;;;4991751;28;20436;-47
2021/10/24 05:25:42;;;;;;;28.70;12.70;;;;;;;;;;4991984;28;20771;-47
2021/10/24 05:28:08;;;;;;;24.87;13.17;;;;;;;;;;4991841;28;20475;-47
2021/10/24 05:30:34;;;;;;;16.73;10.30;;;;;;;;;;4991876;28;20415;-46
2021/10/24 05:33:00;;;;;;;17.73;10.40;;;;;;;;;;4991783;28;20428;-47
2021/10/24 05:35:26;;;;;;;14.07;9.87;;;;;;;;;;4994352;28;20606;-48
2021/10/24 05:37:52;;;;;;;12.55;9.65;;;;;;;;;;4995386;28;20771;-48
2021/10/24 05:40:18;;;;;;;10.63;9.53;;;;;;;;;;4995414;28;20172;-48
2021/10/24 05:42:43;;;;;;;18.83;9.27;;;;;;;;;;4994993;28;20840;-47
2021/10/24 05:45:10;;;;;;;10.40;7.87;;;;;;;;;;4995260;28;20412;-48
2021/10/24 05:47:36;;;;;;;11.68;8.93;;;;;;;;;;4995195;28;20419;-48
2021/10/24 05:50:02;;;;;;;16.00;8.88;;;;;;;;;;4995219;28;20227;-47
2021/10/24 05:52:28;;;;;;;14.38;9.00;;;;;;;;;;4994938;28;20259;-47
2021/10/24 05:54:54;;;;;;;16.02;9.52;;;;;;;;;;4995189;28;20217;-48
2021/10/24 05:57:20;;;;;;;16.37;9.80;;;;;;;;;;4994957;28;20203;-49
2021/10/24 05:59:46;;;;;;;11.10;8.80;;;;;;;;;;4994991;28;20396;-47
2021/10/24 06:02:12;;;;;;;13.27;8.23;;;;;;;;;;4994899;28;20769;-47
2021/10/24 06:04:38;;;;;;;14.27;8.33;;;;;;;;;;4994994;28;20168;-47
2021/10/24 06:07:04;;;;;;;10.57;7.67;;;;;;;;;;4994827;28;20441;-48
2021/10/24 06:09:50;;;;;;;15.38;8.48;;;;;;;;;;4994861;28;20404;-47
2021/10/24 06:13:02;;;;;;;12.63;8.55;;;;;;;;;;4994425;28;20212;-47
2021/10/24 06:15:06;;;;;;;10.43;8.20;;;;;;;;;;4987318;28;20248;-46
2021/10/24 06:17:32;;;;;;;14.82;8.20;;;;;;;;;;4994819;28;20173;-48
2021/10/24 06:19:58;;;;;;;15.80;9.33;;;;;;;;;;4994719;28;20538;-48
2021/10/24 06:22:26;;;;;;;11.80;7.73;;;;;;;;;;4994150;28;20443;-47
2021/10/24 06:24:52;;;;;;;13.73;8.73;;;;;;;;;;4994630;28;20408;-48
2021/10/24 06:27:18;;;;;;;12.90;8.07;;;;;;;;;;4994613;28;20641;-49
2021/10/24 06:29:44;;;;;;;12.10;7.83;;;;;;;;;;4994649;28;20184;-48
2021/10/24 06:32:10;;;;;;;12.98;8.65;;;;;;;;;;4994173;28;20431;-47
2021/10/24 06:34:36;;;;;;;13.00;8.80;;;;;;;;;;4994167;28;20203;-48
2021/10/24 06:37:02;;;;;;;13.50;8.07;;;;;;;;;;4993469;28;20407;-48
2021/10/24 06:39:28;;;;;;;13.17;8.73;;;;;;;;;;4993849;28;20426;-47
2021/10/24 06:41:54;;;;;;;12.65;9.70;;;;;;;;;;4993351;28;20406;-48
2021/10/24 06:44:20;;;;;;;9.93;8.20;;;;;;;;;;4993644;28;20169;-49
2021/10/24 06:46:46;;;;;;;15.73;8.07;;;;;;;;;;4992181;28;20443;-46
2021/10/24 06:49:12;;;;;;;10.63;7.70;;;;;;;;;;4993520;28;20509;-48
2021/10/24 06:51:38;;;;;;;14.15;8.40;;;;;;;;;;4993217;28;20189;-48
2021/10/24 06:54:04;;;;;;;15.38;9.20;;;;;;;;;;4993618;28;20599;-49
2021/10/24 06:56:30;;;;;;;13.20;8.43;;;;;;;;;;4993100;28;20247;-47
2021/10/24 06:58:56;;;;;;;10.70;7.90;;;;;;;;;;4993151;28;20439;-49
2021/10/24 07:01:22;;;;;;;9.50;7.57;;;;;;;;;;4993579;28;20455;-48
2021/10/24 07:03:48;;;;;;;13.17;8.80;;;;;;;;;;4992719;28;20444;-47
2021/10/24 07:06:16;;;;;;;16.17;10.10;;;;;;;;;;4993197;28;20820;-46
2021/10/24 07:08:42;;;;;;;11.23;8.75;;;;;;;;;;4993017;28;20466;-47
2021/10/24 07:11:08;;;;;;;13.33;9.00;;;;;;;;;;4993027;28;20177;-47
2021/10/24 07:13:33;;;;;;;12.63;8.23;;;;;;;;;;4992653;28;20432;-47
2021/10/24 07:16:00;;;;;;;11.93;8.97;;;;;;;;;;4992825;28;20467;-48
2021/10/24 07:18:26;;;;;;;10.40;8.15;;;;;;;;;;4992258;28;20442;-46
2021/10/24 07:20:52;;;;;;;11.65;8.98;;;;;;;;;;4991823;28;20381;-48
2021/10/24 07:23:18;;;;;;;10.30;8.37;;;;;;;;;;4992393;28;20201;-47
2021/10/24 07:25:44;;;;;;;9.93;8.13;;;;;;;;;;4991201;28;20456;-47
2021/10/24 07:28:10;;;;;;;10.63;7.77;;;;;;;;;;4991992;28;20203;-47
2021/10/24 07:30:36;;;;;;;15.30;8.15;;;;;;;;;;4993287;28;20451;-47
2021/10/24 07:33:03;;;;;;;15.33;7.63;;;;;;;;;;4992915;28;20677;-48
2021/10/24 07:35:29;;;;;;;10.45;7.60;;;;;;;;;;4993017;28;20448;-48
2021/10/24 07:37:55;;;;;;;13.38;7.65;;;;;;;;;;4993087;28;20539;-47
2021/10/24 07:40:22;;;;;;;15.27;8.90;;;;;;;;;;4992871;28;20168;-49
2021/10/24 07:42:49;;;;;;;8.75;7.10;;;;;;;;;;4992328;28;20181;-47
2021/10/24 07:45:16;;;;;;;11.13;7.82;;;;;;;;;;4993022;28;20165;-49
2021/10/24 07:47:42;;;;;;;11.10;7.70;;;;;;;;;;4992951;28;20179;-48
2021/10/24 07:50:09;;;;;;;13.80;7.72;;;;;;;;;;4992406;28;20176;-47
2021/10/24 07:52:36;;;;;;;12.50;8.02;;;;;;;;;;4992420;28;20236;-47
2021/10/24 07:55:03;;;;;;;12.30;7.57;;;;;;;;;;4992575;28;20203;-49
2021/10/24 07:57:29;;;;;;;11.47;7.53;;;;;;;;;;4992007;28;20462;-47
2021/10/24 07:59:55;;;;;;;12.13;7.80;;;;;;;;;;4992438;28;20409;-46
2021/10/24 08:02:21;;;;;;;10.43;6.60;;;;;;;;;;4991450;28;20581;-47
2021/10/24 08:04:50;;;;;;;10.20;7.40;;;;;;;;;;4992769;28;20404;-48
2021/10/24 08:07:16;;;;;;;7.57;6.80;;;;;;;;;;4992761;28;20419;-47
2021/10/24 08:09:43;;;;;;;10.43;7.30;;;;;;;;;;4992661;28;20418;-48
2021/10/24 08:12:09;;;;;;;6.87;6.13;;;;;;;;;;4992395;28;20505;-48
2021/10/24 08:14:36;;;;;;;7.17;5.97;;;;;;;;;;4992649;28;20613;-49
2021/10/24 08:17:04;;;;;;;10.17;6.80;;;;;;;;;;4992469;28;20439;-47
2021/10/24 08:19:30;;;;;;;9.17;6.43;;;;;;;;;;4992598;28;20474;-49
2021/10/24 08:21:57;;;;;;;7.17;6.30;;;;;;;;;;4992209;28;20813;-48
2021/10/24 08:24:23;;;;;;;10.30;6.47;;;;;;;;;;4992480;28;20403;-48
2021/10/24 08:26:49;;;;;;;14.10;7.27;;;;;;;;;;4992540;28;20411;-49
2021/10/24 08:29:16;;;;;;;12.73;7.00;;;;;;;;;;4992622;28;20404;-48
2021/10/24 08:31:45;;;;;;;14.97;6.40;;;;;;;;;;4992217;28;20951;-49
2021/10/24 08:34:11;;;;;;;10.87;6.90;;;;;;;;;;4992461;28;20407;-49
2021/10/24 08:36:37;;;;;;;8.83;6.30;;;;;;;;;;4992336;28;20470;-49
2021/10/24 08:39:03;;;;;;;7.17;6.23;;;;;;;;;;4992492;28;20754;-47
2021/10/24 08:41:29;;;;;;;9.37;5.87;;;;;;;;;;4992794;28;20432;-49
2021/10/24 08:44:00;;;;;;;18.57;6.90;;;;;;;;;;4992154;28;20429;-49
2021/10/24 08:46:26;;;;;;;8.23;5.73;;;;;;;;;;4990968;28;20423;-48
2021/10/24 08:48:53;;;;;;;7.80;5.23;;;;;;;;;;4992362;28;20426;-49
2021/10/24 08:51:19;;;;;;;8.27;4.87;;;;;;;;;;4992343;28;20411;-48
2021/10/24 08:53:45;;;;;;;6.07;5.47;;;;;;;;;;4992021;28;20432;-48
2021/10/24 08:56:19;;;;;;;6.93;4.80;;;;;;;;;;4992294;28;21008;-49
2021/10/24 08:58:45;;;;;;;6.00;4.63;;;;;;;;;;4992313;28;20409;-48
2021/10/24 09:01:12;;;;;;;4.50;4.10;;;;;;;;;;4992282;28;20425;-49
2021/10/24 09:03:38;;;;;;;6.80;4.00;;;;;;;;;;4992060;28;20420;-50
2021/10/24 09:06:07;;;;;;;9.83;4.37;;;;;;;;;;4992393;28;20483;-50
2021/10/24 09:08:37;;;;;;;5.80;3.43;;;;;;;;;;4992236;28;20430;-49
2021/10/24 09:11:03;;;;;;;3.87;3.23;;;;;;;;;;4995909;28;20386;-49
2021/10/24 09:13:31;;;;;;;8.43;4.10;;;;;;;;;;4995733;28;20772;-50
2021/10/24 09:16:02;;;;;;;5.13;3.90;;;;;;;;;;4996040;28;20459;-50
2021/10/24 09:18:31;;;;;;;10.43;3.50;;;;;;;;;;4995811;28;20412;-49
2021/10/24 09:20:58;;;;;;;8.93;4.10;;;;;;;;;;4996026;28;20482;-50
2021/10/24 09:23:24;;;;;;;7.63;3.67;;;;;;;;;;4995404;28;20436;-50
2021/10/24 09:25:56;;;;;;;4.63;3.23;;;;;;;;;;4995834;28;20411;-51
2021/10/24 09:28:24;;;;;;;4.50;3.70;;;;;;;;;;4995714;28;20412;-49
2021/10/24 09:31:00;;;;;;;6.40;4.50;;;;;;;;;;4995756;28;20482;-50
2021/10/24 09:33:27;;;;;;;4.97;3.10;;;;;;;;;;4995395;28;20432;-49
2021/10/24 09:35:53;;;;;;;3.27;2.47;;;;;;;;;;4995542;28;20547;-49
2021/10/24 09:38:20;;;;;;;4.13;2.73;;;;;;;;;;4995528;28;20428;-50
2021/10/24 09:40:48;;;;;;;3.00;2.73;;;;;;;;;;4995597;28;20490;-50
2021/10/24 09:43:19;;;;;;;3.67;3.20;;;;;;;;;;4995618;28;20432;-49
2021/10/24 09:46:06;;;;;;;3.40;2.20;;;;;;;;;;4996202;28;20418;-50
2021/10/24 09:48:33;;;;;;;4.03;2.30;;;;;;;;;;4988538;28;20970;-50
2021/10/24 09:51:00;;;;;;;4.40;2.90;;;;;;;;;;4995250;28;20408;-49
2021/10/24 09:53:37;;;;;;;2.70;2.33;;;;;;;;;;4995074;28;20431;-49
2021/10/24 09:56:03;;;;;;;3.20;2.50;;;;;;;;;;4995396;28;20960;-48
2021/10/24 09:58:30;;;;;;;3.57;2.20;;;;;;;;;;4995169;28;20435;-50
2021/10/24 10:00:56;;;;;;;2.93;2.50;;;;;;;;;;5008608;28;20411;-50
2021/10/24 10:03:24;;;;;;;3.40;2.73;;;;;;;;;;5014344;28;20419;-49
2021/10/24 10:05:50;;;;;;;3.07;2.40;;;;;;;;;;5014502;28;20403;-49
2021/10/24 10:08:16;;;;;;;6.00;2.37;;;;;;;;;;5014598;28;20407;-49
2021/10/24 10:10:44;;;;;;;2.70;2.50;;;;;;;;;;5014601;28;20406;-49
2021/10/24 10:13:11;;;;;;;3.50;2.93;;;;;;;;;;5014337;28;20435;-49
2021/10/24 10:15:40;;;;;;;3.37;2.30;;;;;;;;;;4995328;28;21010;-49
2021/10/24 10:18:06;;;;;;;2.67;2.37;;;;;;;;;;4994856;28;20418;-48
2021/10/24 10:20:35;;;;;;;4.33;2.23;;;;;;;;;;4994400;28;20404;-50
2021/10/24 10:23:05;;;;;;;2.33;2.13;;;;;;;;;;4994596;28;21021;-46
2021/10/24 10:25:33;;;;;;;5.27;2.60;;;;;;;;;;4994240;28;20903;-46
2021/10/24 10:27:59;;;;;;;3.40;2.50;;;;;;;;;;4994612;28;20404;-48
2021/10/24 10:30:32;;;;;;;5.40;2.60;;;;;;;;;;4994383;28;20405;-47
2021/10/24 10:32:58;;;;;;;3.70;2.20;;;;;;;;;;4994309;28;20427;-45
2021/10/24 10:35:28;;;;;;;3.43;2.53;;;;;;;;;;4994509;28;20466;-46
2021/10/24 10:37:55;;;;;;;4.10;2.50;;;;;;;;;;4994549;28;20432;-45
2021/10/24 10:40:21;;;;;;;3.87;2.30;;;;;;;;;;4994426;28;20419;-45
2021/10/24 10:42:48;;;;;;;2.43;2.23;;;;;;;;;;4994063;28;20416;-46
2021/10/24 10:45:14;;;;;;;2.60;2.40;;;;;;;;;;4994576;28;20826;-46
2021/10/24 10:47:53;;;;;;;3.03;2.17;;;;;;;;;;4994291;28;20404;-46
2021/10/24 10:50:28;;;;;;;3.53;2.40;;;;;;;;;;4994217;28;20408;-45
2021/10/24 10:52:55;;;;;;;2.90;2.03;;;;;;;;;;4993832;28;20424;-50
2021/10/24 10:55:21;;;;;;;5.40;2.50;;;;;;;;;;4993949;28;20537;-47
2021/10/24 10:57:47;;;;;;;6.20;2.87;;;;;;;;;;4994094;28;20408;-45
2021/10/24 11:00:29;;;;;;;2.00;1.90;;;;;;;;;;4994139;28;20408;-47
2021/10/24 11:02:55;;;;;;;4.10;2.33;;;;;;;;;;4993652;28;20432;-47
2021/10/24 11:05:40;;;;;;;4.30;2.30;;;;;;;;;;4993749;28;20408;-46
2021/10/24 11:08:26;;;;;;;1.93;1.80;;;;;;;;;;4993602;28;20408;-47
2021/10/24 11:10:52;;;;;;;6.10;2.67;;;;;;;;;;4993557;28;20422;-51
2021/10/24 11:13:27;;;;;;;2.23;1.60;;;;;;;;;;4993423;28;20424;-46
2021/10/24 11:15:52;;;;;;;2.73;1.70;;;;;;;;;;4993551;28;20505;-46
2021/10/24 11:18:31;;;;;;;3.40;2.33;;;;;;;;;;4993327;28;20435;-49
2021/10/24 11:20:58;;;;;;;2.57;2.37;;;;;;;;;;4993524;28;20900;-45
2021/10/24 11:23:24;;;;;;;3.30;1.97;;;;;;;;;;4993110;28;20439;-47
2021/10/24 11:25:52;;;;;;;3.63;1.83;;;;;;;;;;4993452;28;20904;-46
2021/10/24 11:28:20;;;;;;;2.63;1.80;;;;;;;;;;4993431;28;20439;-45
2021/10/24 11:30:55;;;;;;;3.00;2.00;;;;;;;;;;4993358;28;20415;-46
2021/10/24 11:33:21;;;;;;;4.53;1.83;;;;;;;;;;4992207;28;20842;-46
2021/10/24 11:35:47;;;;;;;2.13;2.03;;;;;;;;;;4993051;28;20895;-47
2021/10/24 11:38:14;;;;;;;3.73;1.63;;;;;;;;;;4993224;28;20900;-46
2021/10/24 11:40:41;;;;;;;4.13;1.90;;;;;;;;;;4993324;28;20412;-49
2021/10/24 11:43:10;;;;;;;2.13;1.73;;;;;;;;;;4993016;28;20427;-45
2021/10/24 11:45:38;;;;;;;3.37;1.70;;;;;;;;;;4993095;28;20922;-48
2021/10/24 11:48:06;;;;;;;3.50;2.10;;;;;;;;;;4993251;28;20774;-45
2021/10/24 11:50:52;;;;;;;4.67;4.03;;;;;;;;;;4992998;28;20404;-46
2021/10/24 11:53:21;;;;;;;1.80;1.70;;;;;;;;;;4992701;28;20458;-46
2021/10/24 11:55:49;;;;;;;3.20;1.70;;;;;;;;;;4992776;28;20884;-48
2021/10/24 11:58:28;;;;;;;2.57;1.80;;;;;;;;;;4992954;28;20404;-46
2021/10/24 12:01:04;;;;;;;4.07;1.60;;;;;;;;;;4992939;28;20443;-47
2021/10/24 12:03:32;;;;;;;6.43;3.10;;;;;;;;;;4992536;28;20419;-48
2021/10/24 12:05:58;;;;;;;2.90;2.00;;;;;;;;;;4992813;28;20405;-50
2021/10/24 12:08:43;;;;;;;2.80;2.53;;;;;;;;;;4992663;28;20408;-48
2021/10/24 12:11:13;;;;;;;2.17;1.73;;;;;;;;;;4992910;28;20936;-46
2021/10/24 12:13:40;;;;;;;1.90;1.43;;;;;;;;;;5010234;28;20488;-47
2021/10/24 12:16:22;;;;;;;2.57;1.50;;;;;;;;;;5012178;28;20534;-46
2021/10/24 12:18:48;;;;;;;2.70;1.70;;;;;;;;;;5012095;28;20396;-46
2021/10/24 12:21:14;;;;;;;2.70;1.70;;;;;;;;;;5012184;28;20895;-46
2021/10/24 12:23:40;;;;;;;1.87;1.73;;;;;;;;;;5011827;28;20504;-45
2021/10/24 12:26:08;;;;;;;4.30;1.60;;;;;;;;;;5012083;28;20779;-46
2021/10/24 12:28:40;;;;;;;2.50;1.53;;;;;;;;;;5011974;28;20889;-46
2021/10/24 12:31:24;;;;;;;2.20;1.57;;;;;;;;;;5011942;28;20538;-47
2021/10/24 12:33:50;;;;;;;3.00;1.60;;;;;;;;;;5011654;28;20427;-46
2021/10/24 12:36:33;;;;;;;1.57;1.47;;;;;;;;;;5011996;28;20458;-48
2021/10/24 12:39:00;;;;;;;1.90;1.50;;;;;;;;;;5012043;28;20796;-46
2021/10/24 12:41:37;;;;;;;4.50;1.80;;;;;;;;;;5011866;28;20833;-50
2021/10/24 12:44:07;;;;;;;2.20;1.60;;;;;;;;;;5014000;28;20886;-46
2021/10/24 12:46:34;;;;;;;1.70;1.57;;;;;;;;;;5015892;28;20411;-51
2021/10/24 12:49:10;;;;;;;3.13;1.80;;;;;;;;;;5015996;28;20406;-46
2021/10/24 12:51:36;;;;;;;1.90;1.57;;;;;;;;;;5014878;28;20407;-46
2021/10/24 12:54:04;;;;;;;2.10;2.00;;;;;;;;;;5015509;28;20818;-48
2021/10/24 12:56:32;;;;;;;1.70;1.60;;;;;;;;;;5015498;28;20465;-46
2021/10/24 12:58:59;;;;;;;4.20;2.50;;;;;;;;;;5015779;28;20430;-46
2021/10/24 13:01:26;;;;;;;1.57;1.47;;;;;;;;;;5015701;28;20453;-47
2021/10/24 13:03:52;;;;;;;3.47;1.67;;;;;;;;;;5015451;28;20419;-48
2021/10/24 13:06:18;;;;;;;2.63;1.60;;;;;;;;;;5015613;28;20403;-48
2021/10/24 13:08:44;;;;;;;2.40;1.80;;;;;;;;;;5015439;28;20403;-47
2021/10/24 13:11:13;;;;;;;3.50;1.67;;;;;;;;;;5015406;28;20910;-48
2021/10/24 13:13:40;;;;;;;3.23;1.97;;;;;;;;;;5015233;28;20945;-47
2021/10/24 13:16:06;;;;;;;2.57;1.57;;;;;;;;;;5015286;28;20489;-46
2021/10/24 13:18:32;;;;;;;4.53;1.60;;;;;;;;;;5015388;28;20403;-46
2021/10/24 13:21:02;;;;;;;2.50;1.60;;;;;;;;;;5015464;28;20748;-46
2021/10/24 13:23:28;;;;;;;2.27;1.60;;;;;;;;;;5015245;28;20829;-46
2021/10/24 13:25:54;;;;;;;2.70;1.60;;;;;;;;;;5015296;28;20414;-47
2021/10/24 13:28:20;;;;;;;1.70;1.60;;;;;;;;;;5015547;28;20411;-47
2021/10/24 13:30:47;;;;;;;3.27;1.80;;;;;;;;;;5015210;28;20465;-48
2021/10/24 13:33:13;;;;;;;2.23;1.80;;;;;;;;;;5014841;28;21011;-46
2021/10/24 13:35:39;;;;;;;2.00;1.90;;;;;;;;;;5015103;28;21005;-45
2021/10/24 13:38:05;;;;;;;3.63;1.80;;;;;;;;;;5014989;28;20502;-46
2021/10/24 13:40:31;;;;;;;3.30;1.80;;;;;;;;;;5015076;28;20403;-46
2021/10/24 13:42:57;;;;;;;1.47;1.37;;;;;;;;;;5014779;28;20819;-46
2021/10/24 13:45:25;;;;;;;1.47;1.37;;;;;;;;;;5014983;28;20940;-47
2021/10/24 13:47:51;;;;;;;1.60;1.50;;;;;;;;;;5014839;28;20903;-46
2021/10/24 13:50:17;;;;;;;1.80;1.53;;;;;;;;;;5014805;28;20454;-48
2021/10/24 13:52:43;;;;;;;1.90;1.70;;;;;;;;;;5013560;28;20443;-50
2021/10/24 13:55:10;;;;;;;2.70;1.73;;;;;;;;;;4995798;28;20850;-46
2021/10/24 13:57:36;;;;;;;8.40;1.80;;;;;;;;;;4995027;28;20463;-48
2021/10/24 14:00:03;;;;;;;1.70;1.60;;;;;;;;;;4994985;28;20408;-48
2021/10/24 14:02:29;;;;;;;1.50;1.40;;;;;;;;;;4994739;28;20982;-46
2021/10/24 14:04:56;;;;;;;3.20;1.90;;;;;;;;;;4994871;28;20408;-46
2021/10/24 14:07:23;;;;;;;6.93;6.23;;;;;;;;;;4995060;28;20412;-48
2021/10/24 14:09:50;;;;;;;1.93;1.73;;;;;;;;;;4995279;28;20401;-47
2021/10/24 14:12:16;;;;;;;2.93;2.37;;;;;;;;;;4993276;28;20558;-47
2021/10/24 14:14:43;;;;;;;1.53;1.43;;;;;;;;;;4993800;28;20455;-50
2021/10/24 14:17:09;;;;;;;2.37;1.40;;;;;;;;;;4994512;28;20407;-48
2021/10/24 14:19:35;;;;;;;1.57;1.47;;;;;;;;;;4994478;28;20408;-48
2021/10/24 14:22:01;;;;;;;3.20;1.60;;;;;;;;;;4994128;28;20419;-50
2021/10/24 14:24:27;;;;;;;1.73;1.63;;;;;;;;;;4994682;28;20404;-46
2021/10/24 14:26:53;;;;;;;2.87;1.57;;;;;;;;;;4994564;28;20420;-46
2021/10/24 14:29:19;;;;;;;1.60;1.50;;;;;;;;;;4994542;28;20401;-49
2021/10/24 14:31:45;;;;;;;2.17;1.97;;;;;;;;;;4994247;28;20411;-49
2021/10/24 14:34:11;;;;;;;4.03;1.60;;;;;;;;;;4994384;28;20427;-46
2021/10/24 14:36:37;;;;;;;3.87;1.90;;;;;;;;;;4994470;28;20472;-46
2021/10/24 14:39:07;;;;;;;5.23;1.97;;;;;;;;;;4994367;28;20396;-46